Time,TemperatureF,DewpointF,PressureIn,WindDirection,WindDirectionDegrees,WindSpeedMPH,WindSpeedGustMPH,Humidity,HourlyPrecipIn,Conditions,Clouds,dailyrainin,SoftwareType,DateUTC
2013-06-30 00:01:00,62.9,62.0,29.72,ENE,60,1.0,1.0,95,0.01,,,0.00,weatherlink.com 1.10,2013-06-30 04:01:00,
2013-06-30 00:16:00,63.0,62.0,29.73,ENE,60,1.0,1.0,95,0.01,,,0.00,weatherlink.com 1.10,2013-06-30 04:16:00,
2013-06-30 00:31:00,63.0,61.0,29.73,North,350,0.0,1.0,93,0.00,,,0.00,weatherlink.com 1.10,2013-06-30 04:31:00,
2013-06-30 00:46:00,62.7,61.0,29.72,NNW,344,0.0,2.0,93,0.00,,,0.00,weatherlink.com 1.10,2013-06-30 04:46:00,
2013-06-30 01:01:00,62.7,61.0,29.72,NW,304,0.0,2.0,93,0.00,,,0.00,weatherlink.com 1.10,2013-06-30 05:01:00,
2013-06-30 01:16:00,62.2,60.0,29.72,NW,304,0.0,2.0,93,0.00,,,0.00,weatherlink.com 1.10,2013-06-30 05:16:00,
2013-06-30 01:31:00,62.0,59.0,29.73,North,5,0.0,3.0,90,0.00,,,0.00,weatherlink.com 1.10,2013-06-30 05:31:00,
2013-06-30 01:46:00,62.2,59.0,29.73,ENE,72,3.0,4.0,88,0.00,,,0.00,weatherlink.com 1.10,2013-06-30 05:46:00,
2013-06-30 02:01:00,62.3,59.0,29.73,East,84,1.0,2.0,89,0.00,,,0.00,weatherlink.com 1.10,2013-06-30 06:01:00,
2013-06-30 02:16:00,62.3,59.0,29.74,East,85,1.0,4.0,88,0.00,,,0.00,weatherlink.com 1.10,2013-06-30 06:16:00,
2013-06-30 02:31:00,62.3,59.0,29.74,NNE,29,2.0,4.0,88,0.00,,,0.00,weatherlink.com 1.10,2013-06-30 06:31:00,
2013-06-30 02:46:00,62.3,58.0,29.74,East,85,1.0,3.0,87,0.00,,,0.00,weatherlink.com 1.10,2013-06-30 06:46:00,
2013-06-30 03:01:00,62.2,59.0,29.75,East,85,1.0,3.0,88,0.00,,,0.00,weatherlink.com 1.10,2013-06-30 07:01:00,
2013-06-30 03:16:00,62.2,59.0,29.75,ENE,63,0.0,4.0,88,0.00,,,0.00,weatherlink.com 1.10,2013-06-30 07:16:00,
2013-06-30 03:31:00,62.1,59.0,29.75,NE,49,3.0,5.0,89,0.00,,,0.00,weatherlink.com 1.10,2013-06-30 07:31:00,
2013-06-30 03:46:00,62.0,59.0,29.75,NE,48,2.0,6.0,88,0.00,,,0.00,weatherlink.com 1.10,2013-06-30 07:46:00,
2013-06-30 04:01:00,61.9,59.0,29.75,ENE,71,2.0,4.0,89,0.00,,,0.00,weatherlink.com 1.10,2013-06-30 08:01:00,
2013-06-30 04:16:00,61.7,59.0,29.74,NNE,32,2.0,6.0,89,0.00,,,0.00,weatherlink.com 1.10,2013-06-30 08:16:00,
2013-06-30 04:32:00,61.6,59.0,29.75,North,5,2.0,7.0,90,0.00,,,0.00,weatherlink.com 1.10,2013-06-30 08:32:00,
2013-06-30 04:47:00,61.5,59.0,29.75,ENE,70,1.0,3.0,91,0.00,,,0.00,weatherlink.com 1.10,2013-06-30 08:47:00,
2013-06-30 05:02:00,61.3,59.0,29.76,NNE,17,1.0,3.0,91,0.00,,,0.00,weatherlink.com 1.10,2013-06-30 09:02:00,
2013-06-30 05:17:00,61.2,59.0,29.76,NE,49,0.0,3.0,91,0.00,,,0.00,weatherlink.com 1.10,2013-06-30 09:17:00,
2013-06-30 05:32:00,60.9,58.0,29.76,NE,49,0.0,4.0,91,0.00,,,0.00,weatherlink.com 1.10,2013-06-30 09:32:00,
2013-06-30 05:47:00,60.9,59.0,29.77,NE,41,1.0,4.0,92,0.00,,,0.00,weatherlink.com 1.10,2013-06-30 09:47:00,
2013-06-30 06:02:00,61.1,59.0,29.77,East,98,0.0,4.0,91,0.00,,,0.00,weatherlink.com 1.10,2013-06-30 10:02:00,
2013-06-30 06:17:00,61.2,59.0,29.77,ENE,61,0.0,2.0,92,0.00,,,0.00,weatherlink.com 1.10,2013-06-30 10:17:00,
2013-06-30 06:32:00,61.3,59.0,29.78,ENE,66,2.0,3.0,91,0.00,,,0.00,weatherlink.com 1.10,2013-06-30 10:32:00,
2013-06-30 06:47:00,61.5,59.0,29.78,ESE,106,0.0,1.0,92,0.00,,,0.00,weatherlink.com 1.10,2013-06-30 10:47:00,
2013-06-30 07:01:00,61.7,59.0,29.78,East,93,0.0,2.0,92,0.00,,,0.00,weatherlink.com 1.10,2013-06-30 11:01:00,
2013-06-30 07:16:00,61.9,59.0,29.79,East,83,0.0,2.0,91,0.00,,,0.00,weatherlink.com 1.10,2013-06-30 11:16:00,
2013-06-30 07:31:00,62.2,60.0,29.79,East,83,0.0,2.0,91,0.00,,,0.00,weatherlink.com 1.10,2013-06-30 11:31:00,
2013-06-30 07:46:00,62.4,60.0,29.79,East,83,0.0,1.0,92,0.00,,,0.00,weatherlink.com 1.10,2013-06-30 11:46:00,
2013-06-30 08:01:00,62.6,60.0,29.80,East,83,0.0,0.0,91,0.00,,,0.00,weatherlink.com 1.10,2013-06-30 12:01:00,
2013-06-30 08:16:00,63.0,60.0,29.80,ENE,74,2.0,2.0,89,0.00,,,0.00,weatherlink.com 1.10,2013-06-30 12:16:00,
2013-06-30 08:31:00,63.2,60.0,29.81,ENE,67,1.0,3.0,90,0.00,,,0.00,weatherlink.com 1.10,2013-06-30 12:31:00,
2013-06-30 08:46:00,63.3,60.0,29.81,NE,42,1.0,2.0,90,0.00,,,0.00,weatherlink.com 1.10,2013-06-30 12:46:00,
2013-06-30 09:01:00,63.5,60.0,29.82,NNE,27,1.0,3.0,89,0.00,,,0.00,weatherlink.com 1.10,2013-06-30 13:01:00,
2013-06-30 09:16:00,64.1,61.0,29.82,NNE,29,2.0,4.0,90,0.00,,,0.00,weatherlink.com 1.10,2013-06-30 13:16:00,
2013-06-30 09:31:00,64.7,62.0,29.82,ENE,70,1.0,5.0,89,0.00,,,0.00,weatherlink.com 1.10,2013-06-30 13:31:00,
2013-06-30 09:46:00,65.5,62.0,29.82,ENE,66,1.0,5.0,87,0.00,,,0.00,weatherlink.com 1.10,2013-06-30 13:46:00,
2013-06-30 10:02:00,66.2,61.0,29.82,ENE,72,3.0,7.0,84,0.00,,,0.00,weatherlink.com 1.10,2013-06-30 14:02:00,
2013-06-30 10:17:00,66.9,62.0,29.83,ENE,76,3.0,7.0,83,0.00,,,0.00,weatherlink.com 1.10,2013-06-30 14:17:00,
2013-06-30 10:32:00,67.6,62.0,29.83,ENE,73,3.0,6.0,82,0.00,,,0.00,weatherlink.com 1.10,2013-06-30 14:32:00,
2013-06-30 10:47:00,68.4,63.0,29.83,NNW,333,3.0,6.0,82,0.01,,,0.01,weatherlink.com 1.10,2013-06-30 14:47:00,
2013-06-30 11:02:00,68.6,62.0,29.83,ENE,68,3.0,7.0,80,0.01,,,0.01,weatherlink.com 1.10,2013-06-30 15:02:00,
2013-06-30 11:17:00,69.1,62.0,29.84,East,97,3.0,10.0,79,0.01,,,0.01,weatherlink.com 1.10,2013-06-30 15:17:00,
2013-06-30 11:32:00,69.4,62.0,29.84,ENE,65,4.0,8.0,78,0.01,,,0.01,weatherlink.com 1.10,2013-06-30 15:32:00,
2013-06-30 11:47:00,69.9,62.0,29.85,ENE,57,5.0,8.0,77,0.00,,,0.01,weatherlink.com 1.10,2013-06-30 15:47:00,
2013-06-30 12:02:00,70.8,62.0,29.85,East,84,7.0,10.0,73,0.00,,,0.01,weatherlink.com 1.10,2013-06-30 16:02:00,
2013-06-30 12:17:00,71.9,63.0,29.85,ENE,61,8.0,13.0,74,0.00,,,0.01,weatherlink.com 1.10,2013-06-30 16:17:00,
2013-06-30 12:32:00,71.5,62.0,29.85,ESE,123,7.0,10.0,73,0.00,,,0.01,weatherlink.com 1.10,2013-06-30 16:32:00,
2013-06-30 12:47:00,71.8,60.0,29.85,ESE,123,2.0,13.0,67,0.00,,,0.01,weatherlink.com 1.10,2013-06-30 16:47:00,
2013-06-30 13:02:00,72.1,61.0,29.85,East,90,3.0,12.0,67,0.00,,,0.01,weatherlink.com 1.10,2013-06-30 17:02:00,
2013-06-30 13:17:00,72.1,61.0,29.85,ENE,75,4.0,11.0,68,0.00,,,0.01,weatherlink.com 1.10,2013-06-30 17:17:00,
2013-06-30 13:32:00,73.3,62.0,29.85,ENE,78,9.0,13.0,67,0.00,,,0.01,weatherlink.com 1.10,2013-06-30 17:32:00,
2013-06-30 13:47:00,72.6,62.0,29.85,ESE,103,3.0,11.0,70,0.00,,,0.01,weatherlink.com 1.10,2013-06-30 17:47:00,
2013-06-30 14:02:00,74.0,62.0,29.85,ENE,60,6.0,15.0,66,0.00,,,0.01,weatherlink.com 1.10,2013-06-30 18:02:00,
2013-06-30 14:17:00,74.2,61.0,29.85,ENE,75,11.0,17.0,63,0.00,,,0.01,weatherlink.com 1.10,2013-06-30 18:17:00,
2013-06-30 14:32:00,74.9,64.0,29.85,ESE,123,8.0,10.0,69,0.00,,,0.01,weatherlink.com 1.10,2013-06-30 18:32:00,
2013-06-30 14:47:00,74.6,62.0,29.85,East,97,4.0,12.0,64,0.00,,,0.01,weatherlink.com 1.10,2013-06-30 18:47:00,
2013-06-30 15:02:00,74.3,62.0,29.84,East,97,9.0,13.0,65,0.00,,,0.01,weatherlink.com 1.10,2013-06-30 19:02:00,
2013-06-30 15:17:00,74.6,62.0,29.84,East,97,3.0,9.0,65,0.00,,,0.01,weatherlink.com 1.10,2013-06-30 19:17:00,
2013-06-30 15:32:00,75.0,63.0,29.84,East,82,4.0,9.0,66,0.00,,,0.01,weatherlink.com 1.10,2013-06-30 19:32:00,
2013-06-30 15:47:00,74.6,62.0,29.84,ESE,103,3.0,10.0,65,0.00,,,0.01,weatherlink.com 1.10,2013-06-30 19:47:00,
2013-06-30 16:02:00,74.6,62.0,29.84,SE,128,1.0,9.0,66,0.00,,,0.01,weatherlink.com 1.10,2013-06-30 20:02:00,
2013-06-30 16:17:00,74.8,63.0,29.84,NE,55,5.0,7.0,67,0.00,,,0.01,weatherlink.com 1.10,2013-06-30 20:17:00,
2013-06-30 16:32:00,74.7,62.0,29.84,East,100,4.0,8.0,65,0.00,,,0.01,weatherlink.com 1.10,2013-06-30 20:32:00,
2013-06-30 16:47:00,75.6,64.0,29.84,SE,140,5.0,10.0,67,0.00,,,0.01,weatherlink.com 1.10,2013-06-30 20:47:00,
2013-06-30 17:02:00,76.2,64.0,29.84,East,82,7.0,12.0,66,0.00,,,0.01,weatherlink.com 1.10,2013-06-30 21:02:00,
2013-06-30 17:17:00,76.4,63.0,29.84,ESE,104,3.0,9.0,64,0.00,,,0.01,weatherlink.com 1.10,2013-06-30 21:17:00,
2013-06-30 17:32:00,76.6,62.0,29.84,ENE,74,3.0,11.0,61,0.00,,,0.01,weatherlink.com 1.10,2013-06-30 21:32:00,
2013-06-30 17:47:00,76.3,64.0,29.84,East,91,6.0,10.0,65,0.00,,,0.01,weatherlink.com 1.10,2013-06-30 21:47:00,
2013-06-30 18:02:00,76.2,62.0,29.85,NE,54,2.0,11.0,62,0.00,,,0.01,weatherlink.com 1.10,2013-06-30 22:02:00,
2013-06-30 18:18:00,76.6,64.0,29.85,ENE,67,5.0,9.0,65,0.00,,,0.01,weatherlink.com 1.10,2013-06-30 22:18:00,
2013-06-30 18:33:00,76.4,62.0,29.85,NE,49,6.0,9.0,61,0.00,,,0.01,weatherlink.com 1.10,2013-06-30 22:33:00,
2013-06-30 18:48:00,75.2,62.0,29.86,ENE,61,3.0,9.0,63,0.00,,,0.01,weatherlink.com 1.10,2013-06-30 22:48:00,
2013-06-30 19:03:00,75.1,60.0,29.86,ENE,61,6.0,10.0,60,0.00,,,0.01,weatherlink.com 1.10,2013-06-30 23:03:00,
2013-06-30 19:18:00,75.3,58.0,29.87,East,92,2.0,11.0,55,0.00,,,0.01,weatherlink.com 1.10,2013-06-30 23:18:00,
2013-06-30 19:33:00,74.7,59.0,29.87,ENE,66,4.0,12.0,58,0.00,,,0.01,weatherlink.com 1.10,2013-06-30 23:33:00,
2013-06-30 19:48:00,74.1,58.0,29.88,East,92,2.0,12.0,58,0.00,,,0.01,weatherlink.com 1.10,2013-06-30 23:48:00,
2013-06-30 20:03:00,73.7,59.0,29.88,ENE,78,9.0,9.0,60,0.00,,,0.01,weatherlink.com 1.10,2013-07-01 00:03:00,
2013-06-30 20:18:00,73.0,58.0,29.88,ESE,105,4.0,11.0,60,0.00,,,0.01,weatherlink.com 1.10,2013-07-01 00:18:00,
2013-06-30 20:33:00,72.5,59.0,29.88,NE,44,2.0,9.0,62,0.00,,,0.01,weatherlink.com 1.10,2013-07-01 00:33:00,
2013-06-30 20:48:00,72.0,59.0,29.89,ESE,103,4.0,6.0,63,0.00,,,0.01,weatherlink.com 1.10,2013-07-01 00:48:00,
2013-06-30 21:03:00,71.3,59.0,29.89,East,79,1.0,4.0,66,0.00,,,0.01,weatherlink.com 1.10,2013-07-01 01:03:00,
2013-06-30 21:18:00,70.4,60.0,29.89,ENE,57,1.0,1.0,69,0.00,,,0.01,weatherlink.com 1.10,2013-07-01 01:18:00,
2013-06-30 21:33:00,69.4,60.0,29.89,ENE,58,0.0,2.0,73,0.00,,,0.01,weatherlink.com 1.10,2013-07-01 01:33:00,
2013-06-30 21:48:00,68.7,61.0,29.90,ENE,75,0.0,2.0,75,0.00,,,0.01,weatherlink.com 1.10,2013-07-01 01:48:00,
2013-06-30 22:03:00,68.3,60.0,29.90,East,96,1.0,1.0,74,0.00,,,0.01,weatherlink.com 1.10,2013-07-01 02:03:00,
2013-06-30 22:18:00,68.0,60.0,29.91,East,96,0.0,2.0,75,0.00,,,0.01,weatherlink.com 1.10,2013-07-01 02:18:00,
2013-06-30 22:33:00,67.5,60.0,29.92,East,96,0.0,1.0,78,0.00,,,0.01,weatherlink.com 1.10,2013-07-01 02:33:00,
2013-06-30 22:48:00,66.8,59.0,29.92,East,96,0.0,1.0,77,0.00,,,0.01,weatherlink.com 1.10,2013-07-01 02:48:00,
2013-06-30 23:03:00,66.2,60.0,29.92,East,96,0.0,2.0,79,0.00,,,0.01,weatherlink.com 1.10,2013-07-01 03:03:00,
2013-06-30 23:18:00,65.9,59.0,29.92,East,92,0.0,2.0,77,0.00,,,0.01,weatherlink.com 1.10,2013-07-01 03:18:00,
2013-06-30 23:33:00,65.1,59.0,29.92,North,355,1.0,3.0,80,0.00,,,0.01,weatherlink.com 1.10,2013-07-01 03:33:00,
2013-06-30 23:48:00,65.6,58.0,29.92,NE,53,1.0,6.0,77,0.00,,,0.01,weatherlink.com 1.10,2013-07-01 03:48:00,